Moss Beach, California
Current Conditions -  °F | °C
As of 1:55 AM on Saturday 25 Oct 2014 (Local Time) from KHAF Reporting Station
Broken Clouds Broken Clouds  
Wind Chill: 64°   Ceiling: 5500
Heat Index: 64°   Visibility: 7mi
Dew Point: 57°   Wind: 20mph
Humidity: 77%   Direction: 170°S
Pressure: 29.93"   Gusts: 26mph
Location:  37.53°N, 122.52°W
Report Text: KHAF 250855Z AUTO 17017G23KT 7SM FEW043 BKN055 18/14 A2993 RMK AO2
Loading
Personal Weather Stations






























Interactive Weather Map
Tropical Storm Tracking
New forecast layout! Learn more

10-Day Weather Forecast

Advertisements
Track Severe Weather on mobile